createdAt,value
2018-10-09T00:01:59.617Z,95.70
2018-10-09T00:04:27.745Z,95.70
2018-10-09T00:06:55.841Z,95.60
2018-10-09T00:09:23.961Z,95.70
2018-10-09T00:11:52.057Z,95.70
2018-10-09T00:14:20.151Z,95.70
2018-10-09T00:16:48.245Z,95.70
2018-10-09T00:19:16.333Z,95.70
2018-10-09T00:21:44.552Z,95.70
2018-10-09T00:24:12.649Z,95.70
2018-10-09T00:26:40.801Z,95.70
2018-10-09T00:29:08.902Z,95.70
2018-10-09T00:31:37.194Z,95.70
2018-10-09T00:34:05.334Z,95.60
2018-10-09T00:36:33.725Z,95.60
2018-10-09T00:39:02.213Z,95.60
2018-10-09T00:41:30.353Z,95.70
2018-10-09T00:43:58.574Z,95.60
2018-10-09T00:46:26.729Z,95.90
2018-10-09T00:48:54.886Z,95.60
2018-10-09T00:51:23.046Z,95.60
2018-10-09T00:53:51.222Z,95.60
2018-10-09T00:56:19.746Z,95.60
2018-10-09T00:58:47.821Z,95.60
2018-10-09T01:01:15.978Z,95.60
2018-10-09T01:06:19.421Z,95.60
2018-10-09T01:08:47.657Z,95.60
2018-10-09T01:11:15.937Z,95.90
2018-10-09T01:13:44.020Z,95.60
2018-10-09T01:16:12.209Z,95.50
2018-10-09T01:18:40.389Z,95.60
2018-10-09T01:21:08.621Z,95.50
2018-10-09T01:23:36.818Z,95.50
2018-10-09T01:26:05.038Z,95.60
2018-10-09T01:28:33.148Z,95.50
2018-10-09T01:31:01.301Z,95.60
2018-10-09T01:33:29.463Z,95.90
2018-10-09T01:35:57.580Z,95.50
2018-10-09T01:41:00.993Z,95.60
2018-10-09T01:43:29.061Z,95.60
2018-10-09T01:45:57.317Z,95.50
2018-10-09T01:48:25.394Z,95.50
2018-10-09T01:50:53.513Z,95.50
2018-10-09T01:53:21.622Z,95.50
2018-10-09T01:55:49.713Z,95.50
2018-10-09T01:58:17.806Z,95.50
2018-10-09T02:00:45.986Z,95.60
2018-10-09T02:03:14.053Z,95.50
2018-10-09T02:05:42.205Z,95.50
2018-10-09T02:08:10.369Z,95.50
2018-10-09T02:10:38.500Z,95.50
2018-10-09T02:13:06.570Z,95.50
2018-10-09T02:15:34.694Z,95.50
2018-10-09T02:18:02.801Z,95.50
2018-10-09T02:20:30.909Z,95.50
2018-10-09T02:22:59.001Z,95.50
2018-10-09T02:25:27.228Z,95.50
2018-10-09T02:27:55.302Z,95.50
2018-10-09T02:30:23.444Z,95.50
2018-10-09T02:32:51.531Z,95.50
2018-10-09T02:35:19.639Z,95.50
2018-10-09T02:37:47.769Z,95.40
2018-10-09T02:40:15.871Z,95.50
2018-10-09T02:42:44.009Z,95.40
2018-10-09T02:45:12.231Z,95.40
2018-10-09T02:47:40.309Z,95.40
2018-10-09T02:50:08.402Z,95.40
2018-10-09T02:52:36.470Z,95.40
2018-10-09T02:55:04.551Z,95.40
2018-10-09T02:57:32.651Z,95.40
2018-10-09T03:00:00.777Z,95.40
2018-10-09T03:02:28.841Z,95.40
2018-10-09T03:04:56.913Z,95.50
2018-10-09T03:07:25.025Z,95.50
2018-10-09T03:09:53.109Z,95.50
2018-10-09T03:12:21.541Z,95.40
2018-10-09T03:14:49.675Z,96.00
2018-10-09T03:17:17.790Z,95.60
2018-10-09T03:19:46.014Z,95.60
2018-10-09T03:22:14.107Z,95.50
2018-10-09T03:24:42.233Z,95.50
2018-10-09T03:27:10.318Z,95.50
2018-10-09T03:29:38.446Z,95.50
2018-10-09T03:32:06.988Z,95.50
2018-10-09T03:34:35.366Z,95.50
2018-10-09T03:37:03.622Z,95.50
2018-10-09T03:39:31.801Z,95.40
2018-10-09T03:42:00.063Z,95.40
2018-10-09T03:44:28.179Z,95.40
2018-10-09T03:46:56.393Z,95.40
2018-10-09T03:49:24.602Z,95.40
2018-10-09T03:51:53.095Z,95.40
2018-10-09T03:54:21.249Z,95.40
2018-10-09T03:56:49.648Z,95.40
2018-10-09T04:01:54.950Z,95.40
2018-10-09T04:04:23.354Z,95.40
2018-10-09T04:06:51.679Z,95.40
2018-10-09T04:09:19.854Z,95.40
2018-10-09T04:11:48.217Z,95.30
2018-10-09T04:14:16.515Z,94.90
2018-10-09T04:16:45.028Z,95.40
2018-10-09T04:19:13.129Z,95.40
2018-10-09T04:21:41.476Z,95.40
2018-10-09T04:24:09.672Z,95.30
2018-10-09T04:26:37.893Z,95.40
2018-10-09T04:29:06.149Z,95.30
2018-10-09T04:31:34.367Z,95.30
2018-10-09T04:34:02.709Z,95.30
2018-10-09T04:36:31.247Z,95.30
2018-10-09T04:38:59.713Z,95.30
2018-10-09T04:41:27.841Z,95.30
2018-10-09T04:43:56.382Z,95.30
2018-10-09T04:46:24.845Z,95.30
2018-10-09T04:48:52.993Z,95.20
2018-10-09T04:51:21.764Z,95.20
2018-10-09T04:53:50.241Z,95.40
2018-10-09T04:56:19.779Z,95.20
2018-10-09T04:58:48.099Z,95.30
2018-10-09T05:01:16.436Z,95.20
2018-10-09T05:03:44.967Z,95.20
2018-10-09T05:06:13.282Z,95.20
2018-10-09T05:08:41.372Z,95.20
2018-10-09T05:11:09.605Z,95.20
2018-10-09T05:13:37.752Z,95.20
2018-10-09T05:16:06.112Z,95.10
2018-10-09T05:18:34.231Z,95.10
2018-10-09T05:21:02.405Z,95.10
2018-10-09T05:23:30.566Z,95.10
2018-10-09T05:25:58.905Z,95.10
2018-10-09T05:28:27.192Z,95.10
2018-10-09T05:30:55.387Z,95.10
2018-10-09T05:33:23.592Z,95.00
2018-10-09T05:35:51.891Z,95.00
2018-10-09T05:38:20.230Z,95.00
2018-10-09T05:40:48.410Z,95.00
2018-10-09T05:43:16.885Z,94.90
2018-10-09T05:45:45.319Z,95.00
2018-10-09T05:48:13.815Z,95.10
2018-10-09T05:50:42.013Z,95.00
2018-10-09T05:53:10.215Z,94.90
2018-10-09T05:55:38.506Z,94.90
2018-10-09T05:58:06.962Z,95.00
2018-10-09T06:00:35.203Z,94.90
2018-10-09T06:03:03.429Z,95.00
2018-10-09T06:08:08.821Z,95.00
2018-10-09T06:10:37.029Z,94.90
2018-10-09T06:13:05.254Z,94.90
2018-10-09T06:15:33.575Z,94.90
2018-10-09T06:18:01.731Z,94.90
2018-10-09T06:20:29.787Z,94.90
2018-10-09T06:22:58.013Z,94.90
2018-10-09T06:25:26.102Z,94.90
2018-10-09T06:27:54.289Z,94.80
2018-10-09T06:30:22.332Z,94.80
2018-10-09T06:32:50.457Z,94.80
2018-10-09T06:35:18.593Z,94.80
2018-10-09T06:37:46.722Z,94.80
2018-10-09T06:40:14.786Z,94.80
2018-10-09T06:42:42.952Z,94.80
2018-10-09T06:45:11.034Z,94.80
2018-10-09T06:47:39.137Z,94.70
2018-10-09T06:50:07.269Z,94.70
2018-10-09T06:52:35.553Z,94.60
2018-10-09T06:55:03.606Z,94.30
2018-10-09T06:57:31.701Z,94.10
2018-10-09T06:59:59.786Z,93.90
2018-10-09T07:02:27.865Z,94.10
2018-10-09T07:04:55.934Z,94.30
2018-10-09T07:07:24.100Z,94.60
2018-10-09T07:09:52.374Z,94.40
2018-10-09T07:12:20.439Z,94.00
2018-10-09T07:14:48.558Z,94.10
2018-10-09T07:17:16.715Z,93.70
2018-10-09T07:19:44.815Z,93.20
2018-10-09T07:22:12.891Z,92.30
2018-10-09T07:24:41.024Z,91.40
2018-10-09T07:27:09.166Z,90.60
2018-10-09T07:29:37.294Z,90.20
2018-10-09T07:32:05.390Z,89.70
2018-10-09T07:34:33.444Z,88.50
2018-10-09T07:37:01.658Z,86.90
2018-10-09T07:39:29.689Z,86.50
2018-10-09T07:41:57.799Z,86.30
2018-10-09T07:44:25.990Z,85.60
2018-10-09T07:46:53.974Z,84.60
2018-10-09T07:49:22.126Z,84.50
2018-10-09T07:51:50.189Z,84.80
2018-10-09T07:54:18.249Z,85.00
2018-10-09T07:56:46.413Z,85.50
2018-10-09T07:59:14.475Z,85.40
2018-10-09T08:01:42.530Z,85.50
2018-10-09T08:04:10.716Z,85.70
2018-10-09T08:06:38.814Z,86.10
2018-10-09T08:09:09.095Z,86.80
2018-10-09T08:11:37.138Z,86.40
2018-10-09T08:14:05.510Z,86.10
2018-10-09T08:16:33.607Z,84.40
2018-10-09T08:19:02.161Z,82.80
2018-10-09T08:21:30.207Z,83.20
2018-10-09T08:23:58.255Z,83.70
2018-10-09T08:26:26.367Z,84.40
2018-10-09T08:28:54.532Z,84.90
2018-10-09T08:31:22.634Z,85.40
2018-10-09T08:33:50.807Z,86.00
2018-10-09T08:36:18.917Z,86.20
2018-10-09T08:38:47.100Z,87.20
2018-10-09T08:41:15.311Z,87.80
2018-10-09T08:43:43.350Z,88.40
2018-10-09T08:46:11.501Z,88.80
2018-10-09T08:48:39.943Z,88.90
2018-10-09T08:51:08.068Z,89.10
2018-10-09T08:53:36.158Z,89.50
2018-10-09T08:56:04.404Z,89.60
2018-10-09T08:58:32.504Z,89.80
2018-10-09T09:01:00.626Z,90.00
2018-10-09T09:03:28.805Z,90.00
2018-10-09T09:05:56.802Z,90.00
2018-10-09T09:08:24.846Z,90.20
2018-10-09T09:10:52.906Z,90.30
2018-10-09T09:13:20.974Z,90.40
2018-10-09T09:15:49.042Z,90.40
2018-10-09T09:18:17.111Z,90.50
2018-10-09T09:20:45.324Z,90.50
2018-10-09T09:23:13.339Z,90.70
2018-10-09T09:25:41.462Z,90.80
2018-10-09T09:28:09.565Z,90.90
2018-10-09T09:30:37.621Z,91.00
2018-10-09T09:33:05.747Z,91.20
2018-10-09T09:35:33.762Z,91.30
2018-10-09T09:38:02.015Z,91.50
2018-10-09T09:40:33.082Z,91.50
2018-10-09T09:43:01.206Z,91.70
2018-10-09T09:45:29.299Z,91.70
2018-10-09T09:47:57.406Z,91.80
2018-10-09T09:50:25.544Z,91.90
2018-10-09T09:52:53.583Z,92.10
2018-10-09T09:55:21.703Z,92.20
2018-10-09T09:57:49.887Z,92.20
2018-10-09T10:00:23.362Z,92.50
2018-10-09T10:02:51.563Z,94.00
2018-10-09T10:05:19.618Z,95.30
2018-10-09T10:07:47.722Z,96.20
2018-10-09T10:10:15.819Z,96.50
2018-10-09T10:12:43.940Z,96.60
2018-10-09T10:15:12.056Z,96.20
2018-10-09T10:17:40.214Z,95.90
2018-10-09T10:20:08.423Z,95.60
2018-10-09T10:22:36.622Z,95.40
2018-10-09T10:25:04.900Z,95.30
2018-10-09T10:27:33.196Z,95.20
2018-10-09T10:30:01.298Z,95.10
2018-10-09T10:32:29.678Z,95.00
2018-10-09T10:34:57.816Z,95.00
2018-10-09T10:37:25.918Z,94.90
2018-10-09T10:39:54.230Z,94.80
2018-10-09T10:42:22.344Z,94.70
2018-10-09T10:44:50.550Z,94.70
2018-10-09T10:47:18.658Z,94.50
2018-10-09T10:49:46.750Z,94.60
2018-10-09T10:52:14.843Z,94.60
2018-10-09T10:54:42.938Z,94.50
2018-10-09T10:57:11.006Z,94.50
2018-10-09T10:59:39.151Z,99.90
2018-10-09T11:02:07.666Z,99.90
2018-10-09T11:04:35.972Z,99.20
2018-10-09T11:07:04.154Z,98.40
2018-10-09T11:09:32.364Z,97.70
2018-10-09T11:12:00.666Z,97.30
2018-10-09T11:14:28.942Z,96.80
2018-10-09T11:16:56.979Z,96.70
2018-10-09T11:19:25.157Z,96.40
2018-10-09T11:21:53.567Z,96.30
2018-10-09T11:24:21.779Z,96.10
2018-10-09T11:26:49.886Z,96.00
2018-10-09T11:29:17.990Z,95.90
2018-10-09T11:31:46.074Z,95.70
2018-10-09T11:34:14.158Z,95.60
2018-10-09T11:36:42.287Z,95.50
2018-10-09T11:39:10.492Z,95.50
2018-10-09T11:41:38.602Z,95.30
2018-10-09T11:44:06.769Z,95.20
2018-10-09T11:46:35.958Z,95.10
2018-10-09T11:49:04.126Z,95.10
2018-10-09T11:51:32.264Z,95.00
2018-10-09T11:54:00.406Z,94.90
2018-10-09T11:56:28.473Z,94.80
2018-10-09T11:58:56.641Z,94.80
2018-10-09T12:01:24.692Z,94.60
2018-10-09T12:03:52.855Z,94.60
2018-10-09T12:06:20.927Z,94.50
2018-10-09T12:08:49.038Z,94.40
2018-10-09T12:11:17.176Z,94.40
2018-10-09T12:13:45.255Z,94.20
2018-10-09T12:16:13.385Z,94.20
2018-10-09T12:18:41.530Z,94.10
2018-10-09T12:21:09.691Z,94.10
2018-10-09T12:23:37.806Z,94.00
2018-10-09T12:26:05.888Z,93.80
2018-10-09T12:28:34.012Z,93.80
2018-10-09T12:31:02.103Z,93.70
2018-10-09T12:33:30.230Z,93.70
2018-10-09T12:35:58.380Z,93.60
2018-10-09T12:38:26.693Z,93.60
2018-10-09T12:40:54.798Z,93.50
2018-10-09T12:43:22.894Z,93.40
2018-10-09T12:45:50.982Z,93.40
2018-10-09T12:48:19.063Z,93.30
2018-10-09T12:50:47.150Z,93.30
2018-10-09T12:53:15.230Z,93.30
2018-10-09T12:55:43.310Z,93.20
2018-10-09T12:58:11.407Z,93.20
2018-10-09T13:00:39.559Z,93.20
2018-10-09T13:03:07.821Z,93.10
2018-10-09T13:05:35.939Z,93.10
2018-10-09T13:08:03.986Z,93.10
2018-10-09T13:10:32.110Z,93.00
2018-10-09T13:13:00.218Z,93.00
2018-10-09T13:15:28.333Z,93.00
2018-10-09T13:17:56.468Z,92.90
2018-10-09T13:20:24.541Z,92.90
2018-10-09T13:22:52.756Z,92.90
2018-10-09T13:25:20.775Z,92.90
2018-10-09T13:27:48.889Z,92.80
2018-10-09T13:30:16.994Z,92.80
2018-10-09T13:32:45.078Z,92.70
2018-10-09T13:35:13.169Z,92.70
2018-10-09T13:37:41.287Z,92.70
2018-10-09T13:40:09.411Z,92.70
2018-10-09T13:42:37.506Z,92.70
2018-10-09T13:45:05.754Z,92.70
2018-10-09T13:47:33.912Z,92.70
2018-10-09T13:50:01.904Z,92.60
2018-10-09T13:52:29.979Z,92.60
2018-10-09T13:54:58.114Z,92.60
2018-10-09T13:57:26.242Z,92.60
2018-10-09T13:59:54.269Z,92.60
2018-10-09T14:02:22.806Z,92.30
2018-10-09T14:04:50.934Z,92.50
2018-10-09T14:07:19.091Z,92.50
2018-10-09T14:09:47.214Z,92.50
2018-10-09T14:12:15.335Z,92.50
2018-10-09T14:14:43.428Z,92.50
2018-10-09T14:17:11.533Z,92.40
2018-10-09T14:19:39.654Z,92.40
2018-10-09T14:22:07.759Z,92.40
2018-10-09T14:24:35.886Z,92.40
2018-10-09T14:27:03.967Z,92.50
2018-10-09T14:29:32.289Z,92.40
2018-10-09T14:32:00.390Z,92.50
2018-10-09T14:34:28.491Z,92.40
2018-10-09T14:36:56.583Z,92.50
2018-10-09T14:39:24.789Z,92.50
2018-10-09T14:41:52.926Z,92.50
2018-10-09T14:44:21.039Z,92.60
2018-10-09T14:46:49.167Z,92.50
2018-10-09T14:49:17.357Z,92.50
2018-10-09T14:51:45.527Z,92.50
2018-10-09T14:54:13.626Z,92.50
2018-10-09T14:56:41.772Z,92.60
2018-10-09T14:59:09.891Z,92.50
2018-10-09T15:01:38.023Z,92.60
2018-10-09T15:04:06.343Z,92.60
2018-10-09T15:06:34.422Z,92.50
2018-10-09T15:09:02.481Z,92.50
2018-10-09T15:11:30.570Z,92.50
2018-10-09T15:13:58.670Z,92.60
2018-10-09T15:16:26.762Z,92.50
2018-10-09T15:18:54.860Z,92.60
2018-10-09T15:21:22.963Z,92.60
2018-10-09T15:23:51.042Z,92.60
2018-10-09T15:26:19.103Z,92.60
2018-10-09T15:28:47.239Z,92.70
2018-10-09T15:31:15.343Z,92.70
2018-10-09T15:33:43.462Z,92.60
2018-10-09T15:36:11.571Z,92.60
2018-10-09T15:38:39.655Z,92.70
2018-10-09T15:41:07.869Z,92.70
2018-10-09T15:43:35.964Z,92.70
2018-10-09T15:46:04.122Z,92.70
2018-10-09T15:48:32.239Z,92.70
2018-10-09T15:51:00.344Z,92.80
2018-10-09T15:53:28.503Z,92.80
2018-10-09T15:55:56.635Z,92.80
2018-10-09T15:58:24.766Z,92.80
2018-10-09T16:00:52.800Z,92.80
2018-10-09T16:03:20.965Z,92.80
2018-10-09T16:05:49.083Z,92.80
2018-10-09T16:08:17.219Z,92.80
2018-10-09T16:10:45.686Z,92.90
2018-10-09T16:13:13.836Z,92.90
2018-10-09T16:15:41.975Z,92.90
2018-10-09T16:18:10.085Z,92.90
2018-10-09T16:20:38.264Z,92.90
2018-10-09T16:23:06.711Z,93.10
2018-10-09T16:25:34.806Z,93.00
2018-10-09T16:28:02.979Z,93.00
2018-10-09T16:30:31.104Z,93.00
2018-10-09T16:32:59.239Z,93.10
2018-10-09T16:35:27.320Z,93.10
2018-10-09T16:37:56.082Z,93.10
2018-10-09T16:40:24.225Z,93.20
2018-10-09T16:42:52.398Z,93.30
2018-10-09T16:45:20.522Z,93.30
2018-10-09T16:47:48.691Z,93.30
2018-10-09T16:50:16.800Z,93.40
2018-10-09T16:52:44.919Z,93.40
2018-10-09T16:55:13.093Z,93.50
2018-10-09T16:57:41.214Z,93.60
2018-10-09T17:00:09.334Z,93.60
2018-10-09T17:02:37.654Z,93.70
2018-10-09T17:05:05.886Z,93.70
2018-10-09T17:07:33.959Z,93.70
2018-10-09T17:10:02.077Z,93.80
2018-10-09T17:12:30.278Z,93.90
2018-10-09T17:14:58.391Z,93.90
2018-10-09T17:17:26.509Z,93.90
2018-10-09T17:19:54.689Z,94.00
2018-10-09T17:22:22.892Z,94.00
2018-10-09T17:24:50.950Z,94.00
2018-10-09T17:27:19.065Z,94.00
2018-10-09T17:29:47.188Z,94.10
2018-10-09T17:32:15.246Z,94.20
2018-10-09T17:34:43.354Z,94.30
2018-10-09T17:37:11.426Z,94.30
2018-10-09T17:39:40.047Z,94.30
2018-10-09T17:42:08.157Z,94.40
2018-10-09T17:44:36.313Z,94.40
2018-10-09T17:47:08.379Z,94.40
2018-10-09T17:49:37.786Z,94.40
2018-10-09T17:52:06.027Z,94.50
2018-10-09T17:54:34.137Z,94.60
2018-10-09T17:57:02.255Z,94.60
2018-10-09T17:59:30.607Z,94.60
2018-10-09T18:01:59.358Z,94.70
2018-10-09T18:04:27.526Z,94.60
2018-10-09T18:06:56.103Z,94.60
2018-10-09T18:09:24.215Z,94.70
2018-10-09T18:11:52.324Z,94.60
2018-10-09T18:14:20.443Z,94.70
2018-10-09T18:16:48.665Z,94.70
2018-10-09T18:19:16.870Z,94.70
2018-10-09T18:21:45.250Z,94.80
2018-10-09T18:24:13.338Z,94.70
2018-10-09T18:26:41.439Z,94.80
2018-10-09T18:29:09.578Z,94.80
2018-10-09T18:31:37.746Z,94.80
2018-10-09T18:34:05.831Z,94.90
2018-10-09T18:36:34.315Z,94.90
2018-10-09T18:39:02.395Z,94.90
2018-10-09T18:41:30.793Z,94.90
2018-10-09T18:43:58.599Z,94.90
2018-10-09T18:46:26.967Z,95.00
2018-10-09T18:48:55.040Z,95.00
2018-10-09T18:51:23.170Z,94.90
2018-10-09T18:53:52.280Z,95.00
2018-10-09T18:56:20.379Z,95.00
2018-10-09T18:58:49.366Z,95.10
2018-10-09T19:01:17.371Z,95.10
2018-10-09T19:03:45.665Z,95.10
2018-10-09T19:06:13.890Z,95.20
2018-10-09T19:08:41.967Z,95.30
2018-10-09T19:11:10.107Z,95.70
2018-10-09T19:13:38.191Z,95.70
2018-10-09T19:16:06.519Z,95.80
2018-10-09T19:18:34.676Z,95.90
2018-10-09T19:21:02.826Z,96.10
2018-10-09T19:23:31.020Z,96.00
2018-10-09T19:25:59.175Z,96.20
2018-10-09T19:28:27.331Z,96.20
2018-10-09T19:30:55.441Z,96.20
2018-10-09T19:33:23.515Z,96.30
2018-10-09T19:35:51.582Z,96.50
2018-10-09T19:38:19.938Z,96.20
2018-10-09T19:40:48.090Z,96.10
2018-10-09T19:43:16.312Z,96.00
2018-10-09T19:45:44.422Z,96.00
2018-10-09T19:48:12.631Z,95.90
2018-10-09T19:50:40.834Z,95.90
2018-10-09T19:53:08.879Z,95.90
2018-10-09T19:55:37.076Z,95.90
2018-10-09T19:58:05.369Z,95.80
2018-10-09T20:00:33.540Z,95.90
2018-10-09T20:05:42.860Z,95.90
2018-10-09T20:08:11.025Z,96.00
2018-10-09T20:10:39.166Z,95.90
2018-10-09T20:13:07.372Z,96.00
2018-10-09T20:15:35.506Z,95.90
2018-10-09T20:18:03.654Z,96.00
2018-10-09T20:20:32.578Z,96.00
2018-10-09T20:23:00.673Z,96.00
2018-10-09T20:25:28.766Z,96.10
2018-10-09T20:27:56.916Z,96.20
2018-10-09T20:30:25.049Z,96.10
2018-10-09T20:32:53.172Z,96.20
2018-10-09T20:35:21.321Z,96.20
2018-10-09T20:37:49.387Z,96.20
2018-10-09T20:40:17.555Z,96.00
2018-10-09T20:42:46.242Z,96.20
2018-10-09T20:45:14.362Z,96.20
2018-10-09T20:47:44.190Z,96.30
2018-10-09T20:50:13.263Z,96.20
2018-10-09T20:52:42.491Z,96.30
2018-10-09T20:55:11.354Z,96.80
2018-10-09T20:57:39.470Z,97.00
2018-10-09T21:00:08.383Z,97.20
2018-10-09T21:02:38.655Z,96.80
2018-10-09T21:05:07.722Z,96.70
2018-10-09T21:07:40.608Z,96.70
2018-10-09T21:10:09.376Z,96.60
2018-10-09T21:12:49.702Z,96.80
2018-10-09T21:15:18.323Z,96.40
2018-10-09T21:17:47.863Z,96.60
2018-10-09T21:20:15.936Z,96.60
2018-10-09T21:22:44.110Z,96.50
2018-10-09T21:25:12.382Z,96.60
2018-10-09T21:27:40.546Z,96.50
2018-10-09T21:30:09.015Z,96.60
2018-10-09T21:32:37.444Z,96.50
2018-10-09T21:35:08.565Z,96.60
2018-10-09T21:37:37.952Z,96.50
2018-10-09T21:40:06.431Z,96.60
2018-10-09T21:42:34.619Z,96.50
2018-10-09T21:45:02.892Z,96.50
2018-10-09T21:47:31.218Z,96.60
2018-10-09T21:49:59.434Z,96.50
2018-10-09T21:52:27.548Z,96.60
2018-10-09T21:54:55.674Z,96.60
2018-10-09T21:57:24.409Z,96.60
2018-10-09T21:59:52.582Z,96.50
2018-10-09T22:02:20.716Z,96.60
2018-10-09T22:04:48.855Z,96.50
2018-10-09T22:07:18.187Z,96.60
2018-10-09T22:09:46.630Z,96.50
2018-10-09T22:12:14.982Z,96.60
2018-10-09T22:14:43.166Z,96.80
2018-10-09T22:17:11.471Z,96.80
2018-10-09T22:19:39.778Z,96.90
2018-10-09T22:22:08.019Z,96.90
2018-10-09T22:24:36.431Z,96.90
2018-10-09T22:27:04.687Z,96.90
2018-10-09T22:29:33.150Z,96.90
2018-10-09T22:35:21.267Z,97.30
2018-10-09T22:37:49.444Z,96.80
2018-10-09T22:40:17.851Z,96.70
2018-10-09T22:42:46.130Z,96.70
2018-10-09T22:45:14.290Z,96.50
2018-10-09T22:47:42.519Z,96.50
2018-10-09T22:50:10.852Z,96.30
2018-10-09T22:52:39.095Z,96.20
2018-10-09T22:55:07.459Z,96.10
2018-10-09T22:57:36.444Z,96.10
2018-10-09T23:00:04.648Z,96.10
2018-10-09T23:02:32.808Z,96.00
2018-10-09T23:05:01.001Z,96.10
2018-10-09T23:07:29.260Z,96.00
2018-10-09T23:09:57.530Z,96.00
2018-10-09T23:12:25.789Z,96.00
2018-10-09T23:14:54.023Z,95.90
2018-10-09T23:17:22.290Z,95.90
2018-10-09T23:19:50.474Z,95.80
2018-10-09T23:22:18.668Z,95.90
2018-10-09T23:24:46.950Z,95.90
2018-10-09T23:27:15.241Z,95.80
2018-10-09T23:29:43.599Z,95.80
2018-10-09T23:32:11.842Z,95.70
2018-10-09T23:34:40.109Z,95.80
2018-10-09T23:37:08.658Z,95.80
2018-10-09T23:39:37.030Z,95.80
2018-10-09T23:42:05.979Z,95.70
2018-10-09T23:44:34.313Z,95.70
2018-10-09T23:47:02.594Z,95.60
2018-10-09T23:49:30.872Z,95.60
2018-10-09T23:51:58.994Z,95.50
2018-10-09T23:54:27.330Z,95.50
2018-10-09T23:56:55.588Z,95.60
2018-10-09T23:59:23.909Z,95.50
